createdAt,value
2022-09-24T00:01:00.943Z,1.70
2022-09-24T00:03:32.684Z,1.60
2022-09-24T00:06:06.063Z,1.57
2022-09-24T00:08:40.899Z,1.67
2022-09-24T00:11:14.671Z,1.60
2022-09-24T00:13:46.643Z,1.83
2022-09-24T00:16:20.549Z,1.40
2022-09-24T00:18:55.954Z,1.70
2022-09-24T00:21:29.691Z,1.83
2022-09-24T00:24:04.678Z,1.57
2022-09-24T00:26:53.240Z,1.53
2022-09-24T00:29:28.108Z,1.83
2022-09-24T00:32:00.134Z,1.50
2022-09-24T00:34:32.413Z,1.67
2022-09-24T00:37:04.525Z,1.50
2022-09-24T00:39:41.682Z,1.70
2022-09-24T00:42:13.645Z,1.73
2022-09-24T00:45:01.971Z,1.90
2022-09-24T00:47:37.647Z,1.57
2022-09-24T00:50:23.838Z,1.90
2022-09-24T00:53:00.134Z,1.90
2022-09-24T00:55:40.858Z,1.70
2022-09-24T00:58:15.883Z,2.00
2022-09-24T01:00:48.203Z,1.60
2022-09-24T01:03:23.961Z,1.73
2022-09-24T01:05:56.618Z,1.73
2022-09-24T01:08:28.751Z,1.80
2022-09-24T01:11:15.357Z,2.00
2022-09-24T01:14:32.677Z,1.80
2022-09-24T01:17:21.360Z,1.80
2022-09-24T01:20:33.249Z,1.90
2022-09-24T01:23:28.539Z,1.70
2022-09-24T01:26:20.575Z,1.80
2022-09-24T01:29:08.051Z,1.70
2022-09-24T01:31:48.184Z,2.00
2022-09-24T01:34:27.914Z,1.70
2022-09-24T01:37:01.509Z,2.00
2022-09-24T01:39:34.230Z,1.97
2022-09-24T01:45:24.293Z,1.80
2022-09-24T02:11:21.025Z,2.00
2022-09-24T02:14:02.541Z,2.00
2022-09-24T02:40:56.085Z,2.17
2022-09-24T02:43:36.801Z,2.37
2022-09-24T02:46:09.292Z,2.10
2022-09-24T02:48:40.702Z,2.33
2022-09-24T02:51:12.178Z,2.50
2022-09-24T02:53:43.191Z,2.20
2022-09-24T02:56:17.702Z,2.60
2022-09-24T02:58:49.209Z,2.20
2022-09-24T03:01:21.189Z,2.40
2022-09-24T03:03:52.864Z,2.30
2022-09-24T03:06:25.287Z,3.00
2022-09-24T03:11:34.459Z,2.50
2022-09-24T03:19:16.287Z,2.47
2022-09-24T03:21:47.738Z,2.80
2022-09-24T03:26:59.468Z,2.13
2022-09-24T03:29:44.480Z,2.20
2022-09-24T03:32:17.920Z,2.37
2022-09-24T03:34:49.383Z,2.53
2022-09-24T03:37:22.784Z,2.97
2022-09-24T03:39:58.781Z,2.47
2022-09-24T03:42:32.636Z,2.50
2022-09-24T03:50:23.774Z,2.63
2022-09-24T03:58:19.405Z,2.20
2022-09-24T04:00:52.371Z,2.17
2022-09-24T04:03:24.762Z,2.10
2022-09-24T04:08:35.011Z,3.27
2022-09-24T04:11:08.891Z,3.23
2022-09-24T04:13:46.276Z,2.20
2022-09-24T04:16:27.513Z,2.77
2022-09-24T04:18:59.721Z,2.60
2022-09-24T04:21:31.847Z,2.30
2022-09-24T04:24:04.172Z,2.40
2022-09-24T04:26:35.257Z,2.27
2022-09-24T04:29:09.069Z,2.20
2022-09-24T04:31:41.542Z,2.63
2022-09-24T04:34:14.082Z,2.83
2022-09-24T04:36:47.952Z,2.87
2022-09-24T04:39:19.337Z,2.73
2022-09-24T04:41:53.185Z,2.73
2022-09-24T04:44:26.983Z,3.00
2022-09-24T04:47:04.289Z,2.80
2022-09-24T04:49:35.233Z,2.83
2022-09-24T04:52:07.236Z,2.60
2022-09-24T04:54:39.116Z,2.60
2022-09-24T04:57:10.113Z,2.73
2022-09-24T04:59:43.734Z,2.70
2022-09-24T05:02:14.921Z,3.10
2022-09-24T05:04:46.020Z,2.63
2022-09-24T05:07:17.388Z,2.90
2022-09-24T05:09:48.585Z,3.23
2022-09-24T05:12:22.067Z,2.90
2022-09-24T05:14:55.153Z,2.33
2022-09-24T05:17:29.148Z,2.93
2022-09-24T05:20:02.248Z,3.17
2022-09-24T05:22:33.366Z,2.93
2022-09-24T05:25:04.491Z,2.93
2022-09-24T05:27:33.934Z,3.13
2022-09-24T05:30:08.014Z,2.73
2022-09-24T05:32:40.421Z,2.87
2022-09-24T05:35:11.861Z,3.03
2022-09-24T05:37:43.730Z,2.70
2022-09-24T05:40:28.045Z,3.33
2022-09-24T05:43:09.051Z,2.57
2022-09-24T05:45:43.240Z,2.53
2022-09-24T05:48:14.641Z,2.53
2022-09-24T05:50:45.597Z,2.50
2022-09-24T05:53:16.419Z,2.37
2022-09-24T05:55:47.976Z,2.77
2022-09-24T05:58:18.951Z,2.87
2022-09-24T06:00:52.653Z,2.70
2022-09-24T06:03:24.355Z,2.50
2022-09-24T06:05:57.266Z,2.60
2022-09-24T06:08:29.921Z,2.53
2022-09-24T06:11:03.169Z,2.30
2022-09-24T06:13:35.754Z,2.30
2022-09-24T06:16:14.655Z,2.47
2022-09-24T06:18:48.471Z,2.40
2022-09-24T06:21:20.686Z,2.47
2022-09-24T06:23:53.112Z,2.30
2022-09-24T06:26:27.488Z,2.73
2022-09-24T06:29:04.388Z,2.20
2022-09-24T06:31:38.237Z,2.50
2022-09-24T06:34:09.155Z,3.00
2022-09-24T06:36:41.726Z,2.90
2022-09-24T06:39:13.491Z,2.43
2022-09-24T06:41:45.008Z,2.60
2022-09-24T06:44:16.154Z,2.53
2022-09-24T06:46:51.071Z,2.77
2022-09-24T06:49:23.692Z,2.50
2022-09-24T06:51:57.561Z,2.67
2022-09-24T06:54:29.448Z,2.77
2022-09-24T06:57:00.614Z,3.13
2022-09-24T06:59:31.740Z,3.20
2022-09-24T07:02:05.939Z,3.00
2022-09-24T07:04:37.616Z,2.63
2022-09-24T07:07:25.615Z,3.00
2022-09-24T07:09:56.777Z,2.53
2022-09-24T07:12:28.107Z,2.77
2022-09-24T07:14:59.359Z,2.67
2022-09-24T07:17:34.180Z,2.57
2022-09-24T07:20:06.087Z,2.70
2022-09-24T07:22:42.586Z,2.80
2022-09-24T07:25:15.319Z,2.50
2022-09-24T07:27:47.316Z,2.80
2022-09-24T07:30:18.491Z,2.43
2022-09-24T07:32:57.138Z,2.60
2022-09-24T07:35:28.284Z,3.00
2022-09-24T07:38:03.983Z,2.90
2022-09-24T07:40:37.369Z,3.70
2022-09-24T07:43:14.621Z,3.70
2022-09-24T07:45:46.231Z,3.10
2022-09-24T07:48:19.454Z,3.37
2022-09-24T07:50:50.821Z,2.70
2022-09-24T07:53:22.745Z,3.03
2022-09-24T07:55:53.746Z,2.83
2022-09-24T07:58:24.891Z,2.50
2022-09-24T08:00:58.932Z,2.70
2022-09-24T08:03:32.526Z,2.70
2022-09-24T08:06:03.837Z,2.70
2022-09-24T08:08:34.994Z,2.63
2022-09-24T08:11:07.297Z,2.77
2022-09-24T08:13:38.497Z,2.73
2022-09-24T08:16:11.494Z,2.40
2022-09-24T08:18:47.506Z,2.50
2022-09-24T08:21:18.894Z,2.60
2022-09-24T08:23:50.210Z,2.63
2022-09-24T08:26:22.049Z,2.80
2022-09-24T08:28:54.742Z,2.60
2022-09-24T08:31:26.891Z,2.73
2022-09-24T08:34:00.786Z,2.90
2022-09-24T08:36:31.872Z,2.60
2022-09-24T08:39:02.992Z,2.37
2022-09-24T08:41:50.865Z,2.83
2022-09-24T08:44:41.270Z,2.50
2022-09-24T08:47:28.763Z,2.30
2022-09-24T08:50:11.054Z,2.60
2022-09-24T08:53:09.639Z,2.50
2022-09-24T08:55:43.881Z,2.67
2022-09-24T08:58:44.175Z,2.63
2022-09-24T09:01:27.122Z,2.87
2022-09-24T09:04:04.495Z,2.30
2022-09-24T09:07:03.506Z,2.60
2022-09-24T09:09:45.018Z,2.40
2022-09-24T09:12:20.553Z,2.80
2022-09-24T09:14:58.848Z,2.40
2022-09-24T09:17:48.193Z,2.40
2022-09-24T09:20:23.238Z,2.63
2022-09-24T09:22:58.278Z,2.50
2022-09-24T09:25:31.861Z,2.63
2022-09-24T09:28:06.097Z,2.70
2022-09-24T09:30:44.464Z,3.10
2022-09-24T09:33:34.287Z,2.67
2022-09-24T09:36:23.070Z,2.67
2022-09-24T09:39:05.108Z,2.57
2022-09-24T09:41:44.130Z,2.77
2022-09-24T09:44:19.434Z,2.67
2022-09-24T09:46:55.395Z,2.90
2022-09-24T09:49:30.058Z,2.50
2022-09-24T09:52:04.033Z,2.90
2022-09-24T09:54:46.161Z,3.03
2022-09-24T09:57:20.577Z,2.87
2022-09-24T09:59:52.835Z,2.70
2022-09-24T10:02:27.825Z,2.77
2022-09-24T10:05:00.870Z,3.00
2022-09-24T10:07:34.459Z,3.47
2022-09-24T10:10:23.369Z,2.57
2022-09-24T10:12:57.353Z,3.07
2022-09-24T10:15:28.528Z,3.00
2022-09-24T10:18:03.256Z,2.90
2022-09-24T10:20:37.003Z,3.50
2022-09-24T10:23:11.220Z,2.83
2022-09-24T10:25:52.362Z,3.20
2022-09-24T10:28:41.298Z,3.20
2022-09-24T10:31:17.203Z,2.97
2022-09-24T10:33:50.958Z,3.37
2022-09-24T10:36:24.883Z,2.80
2022-09-24T10:39:06.608Z,3.00
2022-09-24T10:41:39.311Z,2.80
2022-09-24T10:44:15.405Z,3.10
2022-09-24T10:47:18.952Z,3.23
2022-09-24T10:50:13.885Z,3.30
2022-09-24T10:52:50.509Z,3.10
2022-09-24T10:55:54.494Z,2.90
2022-09-24T10:58:37.451Z,3.90
2022-09-24T11:01:17.517Z,3.50
2022-09-24T11:04:03.076Z,3.43
2022-09-24T11:06:51.178Z,3.50
2022-09-24T11:09:33.632Z,3.33
2022-09-24T11:12:17.020Z,3.33
2022-09-24T11:15:05.264Z,3.53
2022-09-24T11:17:51.531Z,2.97
2022-09-24T11:20:32.917Z,3.63
2022-09-24T11:23:17.679Z,3.43
2022-09-24T11:25:55.486Z,3.00
2022-09-24T11:28:48.588Z,3.10
2022-09-24T11:31:28.564Z,3.57
2022-09-24T11:34:22.805Z,3.10
2022-09-24T11:37:10.794Z,3.27
2022-09-24T11:39:57.126Z,3.10
2022-09-24T11:42:32.289Z,3.20
2022-09-24T11:45:14.357Z,2.97
2022-09-24T11:48:06.584Z,2.73
2022-09-24T11:50:48.158Z,3.20
2022-09-24T11:53:26.787Z,3.10
2022-09-24T11:56:02.517Z,2.90
2022-09-24T11:58:39.452Z,3.23
2022-09-24T12:01:17.983Z,3.07
2022-09-24T12:03:56.323Z,3.03
2022-09-24T12:06:34.053Z,3.07
2022-09-24T12:09:19.233Z,3.10
2022-09-24T12:11:54.429Z,3.00
2022-09-24T12:14:29.090Z,2.77
2022-09-24T12:17:06.531Z,3.30
2022-09-24T12:19:48.025Z,2.87
2022-09-24T12:22:23.579Z,3.03
2022-09-24T12:24:58.956Z,3.23
2022-09-24T12:27:36.468Z,3.13
2022-09-24T12:30:36.967Z,3.60
2022-09-24T12:33:12.373Z,3.07
2022-09-24T12:36:05.352Z,3.43
2022-09-24T12:38:40.219Z,3.57
2022-09-24T12:41:30.349Z,3.60
2022-09-24T12:44:07.127Z,3.73
2022-09-24T12:46:43.723Z,3.30
2022-09-24T12:49:26.147Z,3.00
2022-09-24T12:52:02.946Z,3.47
2022-09-24T12:54:35.645Z,3.00
2022-09-24T12:57:13.314Z,3.60
2022-09-24T12:59:52.885Z,3.20
2022-09-24T13:02:25.616Z,3.80
2022-09-24T13:05:20.137Z,3.50
2022-09-24T13:08:03.957Z,3.40
2022-09-24T13:10:36.723Z,3.63
2022-09-24T13:13:30.426Z,3.60
2022-09-24T13:16:07.137Z,3.17
2022-09-24T13:18:41.136Z,3.23
2022-09-24T13:21:22.094Z,3.57
2022-09-24T13:23:55.355Z,3.37
2022-09-24T13:26:36.545Z,3.60
2022-09-24T13:29:09.947Z,3.40
2022-09-24T13:31:48.932Z,3.23
2022-09-24T13:34:24.057Z,3.37
2022-09-24T13:37:01.144Z,3.50
2022-09-24T13:39:40.318Z,3.43
2022-09-24T13:42:21.468Z,3.50
2022-09-24T13:44:55.695Z,3.93
2022-09-24T13:47:32.786Z,3.23
2022-09-24T13:50:11.837Z,3.37
2022-09-24T13:52:47.944Z,3.10
2022-09-24T13:55:25.822Z,4.23
2022-09-24T13:57:57.131Z,3.43
2022-09-24T14:00:29.264Z,3.90
2022-09-24T14:03:04.729Z,3.50
2022-09-24T14:05:39.151Z,3.83
2022-09-24T14:08:12.865Z,3.50
2022-09-24T14:10:46.650Z,3.43
2022-09-24T14:13:23.554Z,3.43
2022-09-24T14:16:01.815Z,3.67
2022-09-24T14:18:33.111Z,3.30
2022-09-24T14:21:11.864Z,3.50
2022-09-24T14:23:46.514Z,3.53
2022-09-24T14:26:29.159Z,3.33
2022-09-24T14:29:01.769Z,4.00
2022-09-24T14:31:34.592Z,3.63
2022-09-24T14:34:08.415Z,3.43
2022-09-24T14:36:40.817Z,3.57
2022-09-24T14:39:14.687Z,3.40
2022-09-24T14:41:48.115Z,3.77
2022-09-24T14:44:25.769Z,3.57
2022-09-24T14:46:59.837Z,3.77
2022-09-24T14:49:33.629Z,4.00
2022-09-24T14:52:06.185Z,3.60
2022-09-24T14:54:38.944Z,4.20
2022-09-24T14:57:27.213Z,4.30
2022-09-24T14:59:58.509Z,4.10
2022-09-24T15:02:35.716Z,4.47
2022-09-24T15:05:10.399Z,4.00
2022-09-24T15:07:41.596Z,3.63
2022-09-24T15:10:24.854Z,4.37
2022-09-24T15:12:57.973Z,4.10
2022-09-24T15:15:34.408Z,4.60
2022-09-24T15:18:06.577Z,3.50
2022-09-24T15:20:40.377Z,3.50
2022-09-24T15:23:11.702Z,3.97
2022-09-24T15:25:44.611Z,3.90
2022-09-24T15:28:18.428Z,3.80
2022-09-24T15:30:49.804Z,4.53
2022-09-24T15:33:21.152Z,4.30
2022-09-24T15:35:52.427Z,4.03
2022-09-24T15:38:24.386Z,4.13
2022-09-24T15:40:58.415Z,4.50
2022-09-24T15:43:31.528Z,4.40
2022-09-24T15:46:02.810Z,4.10
2022-09-24T15:48:35.604Z,3.90
2022-09-24T15:51:11.055Z,4.07
2022-09-24T15:53:45.446Z,3.87
2022-09-24T15:56:16.951Z,4.03
2022-09-24T15:58:51.147Z,5.17
2022-09-24T16:01:22.941Z,5.20
2022-09-24T16:03:55.264Z,4.67
2022-09-24T16:06:26.351Z,5.13
2022-09-24T16:08:57.454Z,5.50
2022-09-24T16:11:29.343Z,5.40
2022-09-24T16:14:02.899Z,5.07
2022-09-24T16:16:34.571Z,4.90
2022-09-24T16:19:08.023Z,5.17
2022-09-24T16:21:39.178Z,4.73
2022-09-24T16:24:10.634Z,5.27
2022-09-24T16:26:42.279Z,4.77
2022-09-24T16:29:15.939Z,4.47
2022-09-24T16:31:47.751Z,4.17
2022-09-24T16:34:18.942Z,4.30
2022-09-24T16:36:50.948Z,4.00
2022-09-24T16:39:21.893Z,4.37
2022-09-24T16:41:53.230Z,4.60
2022-09-24T16:44:26.321Z,4.03
2022-09-24T16:46:57.432Z,4.07
2022-09-24T16:49:29.433Z,3.93
2022-09-24T16:52:00.538Z,4.13
2022-09-24T16:54:33.644Z,4.10
2022-09-24T16:57:07.605Z,4.20
2022-09-24T16:59:45.340Z,4.20
2022-09-24T17:02:20.097Z,4.37
2022-09-24T17:04:55.310Z,4.57
2022-09-24T17:07:30.784Z,4.27
2022-09-24T17:15:33.488Z,4.47
2022-09-24T17:18:06.996Z,4.37
2022-09-24T17:20:39.193Z,4.40
2022-09-24T17:23:10.613Z,4.87
2022-09-24T17:25:45.487Z,3.93
2022-09-24T17:28:17.405Z,3.73
2022-09-24T17:30:54.644Z,3.33
2022-09-24T17:33:42.990Z,3.67
2022-09-24T17:36:17.661Z,3.70
2022-09-24T17:38:49.182Z,3.87
2022-09-24T17:41:20.624Z,3.60
2022-09-24T17:44:05.544Z,3.50
2022-09-24T17:46:41.451Z,3.33
2022-09-24T17:49:13.966Z,3.80
2022-09-24T17:51:50.256Z,3.50
2022-09-24T17:54:25.229Z,3.73
2022-09-24T17:56:58.533Z,3.70
2022-09-24T17:59:33.416Z,3.30
2022-09-24T18:07:57.135Z,3.27
2022-09-24T18:10:29.706Z,2.63
2022-09-24T18:13:01.667Z,2.90
2022-09-24T18:15:39.261Z,2.73
2022-09-24T18:20:57.071Z,2.80
2022-09-24T18:23:36.078Z,2.90
2022-09-24T18:26:16.165Z,2.97
2022-09-24T18:28:52.675Z,2.57
2022-09-24T18:31:26.544Z,2.67
2022-09-24T18:34:01.828Z,2.67
2022-09-24T18:36:35.898Z,2.47
2022-09-24T18:39:10.702Z,2.57
2022-09-24T18:41:45.329Z,3.10
2022-09-24T18:44:25.091Z,2.83
2022-09-24T18:46:56.036Z,3.17
2022-09-24T18:49:28.766Z,2.60
2022-09-24T18:52:04.001Z,2.67
2022-09-24T18:54:35.843Z,2.60
2022-09-24T18:57:11.409Z,2.40
2022-09-24T19:10:18.591Z,2.30
2022-09-24T19:20:51.898Z,3.00
2022-09-24T19:23:23.502Z,2.60
2022-09-24T19:26:02.353Z,2.77
2022-09-24T19:28:33.841Z,2.50
2022-09-24T19:31:05.710Z,2.47
2022-09-24T19:33:37.791Z,2.80
2022-09-24T19:36:10.383Z,3.10
2022-09-24T19:38:42.665Z,2.57
2022-09-24T19:41:19.323Z,2.50
2022-09-24T19:43:52.385Z,2.80
2022-09-24T19:46:24.950Z,2.50
2022-09-24T19:48:59.198Z,2.80
2022-09-24T19:51:32.466Z,2.50
2022-09-24T19:54:04.855Z,2.43
2022-09-24T19:56:39.403Z,1.93
2022-09-24T19:59:10.922Z,2.30
2022-09-24T20:01:45.443Z,2.30
2022-09-24T20:04:16.805Z,1.80
2022-09-24T20:06:49.388Z,2.20
2022-09-24T20:09:20.655Z,1.80
2022-09-24T20:11:54.189Z,2.60
2022-09-24T20:14:29.125Z,2.20
2022-09-24T20:17:02.467Z,1.90
2022-09-24T20:19:33.520Z,1.73
2022-09-24T20:22:07.524Z,1.70
2022-09-24T20:24:40.294Z,2.13
2022-09-24T20:27:31.991Z,1.97
2022-09-24T20:30:03.398Z,1.83
2022-09-24T20:32:35.327Z,1.90
2022-09-24T20:35:06.859Z,1.70
2022-09-24T20:37:39.892Z,1.30
2022-09-24T20:40:13.582Z,1.40
2022-09-24T20:42:47.449Z,1.43
2022-09-24T20:45:20.155Z,1.47
2022-09-24T20:47:52.120Z,1.80
2022-09-24T20:50:23.605Z,1.67
2022-09-24T20:52:55.676Z,1.37
2022-09-24T20:55:27.162Z,1.60
2022-09-24T20:58:00.912Z,1.80
2022-09-24T21:00:36.601Z,1.40
2022-09-24T21:03:25.959Z,1.77
2022-09-24T21:06:05.627Z,1.60
2022-09-24T21:08:37.148Z,1.70
2022-09-24T21:11:09.397Z,1.63
2022-09-24T21:13:45.644Z,1.80
2022-09-24T21:16:17.243Z,1.77
2022-09-24T21:18:49.017Z,1.60
2022-09-24T21:21:23.601Z,1.50
2022-09-24T21:23:58.655Z,1.60
2022-09-24T21:26:31.145Z,1.90
2022-09-24T21:29:10.074Z,1.80
2022-09-24T21:31:43.786Z,1.60
2022-09-24T21:34:17.016Z,1.80
2022-09-24T21:36:50.019Z,1.27
2022-09-24T21:39:23.971Z,1.40
2022-09-24T21:42:00.194Z,1.17
2022-09-24T21:44:35.463Z,1.13
2022-09-24T21:47:07.365Z,1.47
2022-09-24T21:49:38.417Z,1.30
2022-09-24T21:52:10.870Z,1.20
2022-09-24T21:54:43.151Z,1.33
2022-09-24T21:57:15.279Z,1.40
2022-09-24T22:00:06.169Z,1.00
2022-09-24T22:02:43.176Z,1.00
2022-09-24T22:05:18.034Z,1.40
2022-09-24T22:07:50.057Z,1.20
2022-09-24T22:10:23.284Z,1.20
2022-09-24T22:12:58.388Z,1.30
2022-09-24T22:15:33.284Z,1.33
2022-09-24T22:18:06.434Z,1.30
2022-09-24T22:20:38.798Z,1.43
2022-09-24T22:23:11.660Z,1.33
2022-09-24T22:25:47.432Z,1.20
2022-09-24T22:28:20.749Z,1.10
2022-09-24T22:30:55.345Z,1.10
2022-09-24T22:33:43.909Z,1.10
2022-09-24T22:36:15.695Z,1.43
2022-09-24T22:38:47.006Z,1.30
2022-09-24T22:41:18.608Z,1.27
2022-09-24T22:43:51.128Z,1.37
2022-09-24T22:46:27.988Z,1.30
2022-09-24T22:49:00.990Z,1.40
2022-09-24T22:51:32.872Z,1.27
2022-09-24T22:54:03.903Z,1.50
2022-09-24T22:56:38.725Z,1.67
2022-09-24T22:59:10.690Z,1.30
2022-09-24T23:01:48.055Z,1.43
2022-09-24T23:04:20.161Z,1.17
2022-09-24T23:06:53.130Z,1.20
2022-09-24T23:09:24.469Z,1.30
2022-09-24T23:11:57.511Z,1.53
2022-09-24T23:14:29.023Z,1.27
2022-09-24T23:17:02.956Z,1.40
2022-09-24T23:19:47.689Z,1.20
2022-09-24T23:22:19.245Z,1.10
2022-09-24T23:24:51.880Z,1.50
2022-09-24T23:27:23.929Z,1.40
2022-09-24T23:29:56.500Z,1.40
2022-09-24T23:32:31.592Z,1.30
2022-09-24T23:35:03.061Z,1.70
2022-09-24T23:37:34.713Z,1.70
2022-09-24T23:40:06.688Z,1.77
2022-09-24T23:42:38.534Z,1.50
2022-09-24T23:45:10.892Z,1.47
2022-09-24T23:47:45.362Z,1.60
2022-09-24T23:50:17.484Z,1.67
2022-09-24T23:52:55.753Z,1.40
2022-09-24T23:55:26.377Z,1.60
2022-09-24T23:57:58.973Z,1.50
